Payson, AZ

11:05 PM MST on September 01, 2014 (GMT -0700)
Granite Dells | Change Station
CLOSE
Current Station
Personal Weather Station
Location: Payson, AZ
Elevation: 5000 ft
Nearby Weather Stations

Elev 5000 ft 34.23 °N, 111.30 °W | Updated 3 minutes ago

Clear
Clear
59.9 °F
Feels Like 59.9 °F
N
0.0
Wind Variable Wind from WNW
Gusts 0.0 mph

Today
High -- | Low -- °F
--% Chance of Precip.
Yesterday
High -- | Low -- °F
Precip. -- in
5:58 AM 6:51 PM
Waxing Crescent, 48% visible
Pressure 29.85 in
Visibility 10.0 miles
Clouds Clear
Dew Point 40 °F
Humidity 48%
Rainfall 0.00 in
Snow Depth Not available.
UV 0 out of 12
Pollen 5.90 out of 12
Ozone Good
PM2.5 Good
Flu Activity Not available.
METAR KPRC 020553Z 19007KT 10SM CLR 19/05 A3010 RMK AO2 SLP106 T01940050 10300 20194 51005

More Conditions Fewer Conditions

Pressure 29.85 in
Visibility 10.0 miles
Clouds Clear
Dew Point 40 °F
Humidity 48%
Rainfall 0.00 in
Snow Depth Not available.
UV 0 out of 12
Pollen 5.90 out of 12
Ozone Good
PM2.5 Good
Flu Activity Not available.
METAR KPRC 020553Z 19007KT 10SM CLR 19/05 A3010 RMK AO2 SLP106 T01940050 10300 20194 51005

More Conditions Fewer Conditions

10-Day Weather Forecast

Almanac

Astronomy

Sep. 01, 2014 Rise Set
Actual Time 5:58 AM MST 6:51 PM MST
Civil Twilight 5:33 AM MST 7:16 PM MST
Nautical Twilight 5:02 AM MST 7:46 PM MST
Astronomical Twilight 4:31 AM MST 8:17 PM MST
Moon 12:30 PM MST (9/1) 11:13 PM MST (9/1)
Length of Visible Light 13h 43m
Length of Day
12h 52m
Tomorrow will be 2m 3s shorter.
Waxing Crescent, 48% of the Moon is Illuminated
Sep 2
Waxing Crescent
Sep 2
First Quarter
Sep 8
Full
Sep 15
Last Quarter
Sep 24
New

Community

WunderPhotos

Upload Photos

1,749,581 photos uploaded!

WunderBlogs® & News

Nearby

Air Quality

  Air Quality AQ Index Pollutant
Yesterday Good
OZONE
Yesterday Good
PM10
Current Good
PM2.5
Current Good
OZONE
Monday Moderate
OZONE
Monday Good
PM10
Monday Good
CO
Tuesday Moderate
OZONE
Tuesday Good
PM10
Tuesday Good
CO
Wednesday Moderate
OZONE
Wednesday Good
PM10
Wednesday Good
CO

Snow Depth

Station Depth Elevation
Workman Creek 1 in 6900 ft
White Horse Lake 0 in 7180 ft
Snowslide Canyon 0 in 9730 ft
Maverick Fork 0 in 9200 ft
Beaver Head 31 in 7990 ft

Earthquake Activity

City Distance Mag. Time & Date
No recent earthquake activity has been reported nearby.
Minimum magnitude displayed is 2.5.

Coastal Water Temperatures

Place Temperature
No Stations Reporting

Nearby Weather Stations